sensor_id;sensor_type;location;lat;lon;timestamp;P1;durP1;ratioP1;P2;durP2;ratioP2
25351;SDS011;13304;48.464;8.712;2024-03-08T00:00:00;40.63;;;22.08;;
25351;SDS011;13304;48.464;8.712;2024-03-08T00:02:34;38.58;;;21.15;;
25351;SDS011;13304;48.464;8.712;2024-03-08T00:05:02;38.15;;;22.20;;
25351;SDS011;13304;48.464;8.712;2024-03-08T00:07:31;35.50;;;20.35;;
25351;SDS011;13304;48.464;8.712;2024-03-08T00:09:57;34.50;;;20.73;;
25351;SDS011;13304;48.464;8.712;2024-03-08T00:12:23;38.55;;;20.83;;
25351;SDS011;13304;48.464;8.712;2024-03-08T00:14:49;36.97;;;21.25;;
25351;SDS011;13304;48.464;8.712;2024-03-08T00:17:15;35.00;;;21.45;;
25351;SDS011;13304;48.464;8.712;2024-03-08T00:19:41;33.78;;;20.27;;
25351;SDS011;13304;48.464;8.712;2024-03-08T00:22:06;37.58;;;21.02;;
25351;SDS011;13304;48.464;8.712;2024-03-08T00:24:33;37.80;;;21.88;;
25351;SDS011;13304;48.464;8.712;2024-03-08T00:26:58;40.00;;;21.70;;
25351;SDS011;13304;48.464;8.712;2024-03-08T00:29:24;40.03;;;21.42;;
25351;SDS011;13304;48.464;8.712;2024-03-08T00:31:50;35.05;;;20.45;;
25351;SDS011;13304;48.464;8.712;2024-03-08T00:34:15;35.83;;;20.83;;
25351;SDS011;13304;48.464;8.712;2024-03-08T00:36:41;36.25;;;21.08;;
25351;SDS011;13304;48.464;8.712;2024-03-08T00:39:07;35.13;;;21.02;;
25351;SDS011;13304;48.464;8.712;2024-03-08T00:41:32;37.58;;;21.63;;
25351;SDS011;13304;48.464;8.712;2024-03-08T00:43:58;39.83;;;22.20;;
25351;SDS011;13304;48.464;8.712;2024-03-08T00:46:24;34.40;;;20.52;;
25351;SDS011;13304;48.464;8.712;2024-03-08T00:48:50;37.80;;;21.45;;
25351;SDS011;13304;48.464;8.712;2024-03-08T00:51:15;39.60;;;22.38;;
25351;SDS011;13304;48.464;8.712;2024-03-08T00:53:41;36.92;;;21.60;;
25351;SDS011;13304;48.464;8.712;2024-03-08T00:56:08;38.40;;;21.70;;
25351;SDS011;13304;48.464;8.712;2024-03-08T00:58:36;34.90;;;21.25;;
25351;SDS011;13304;48.464;8.712;2024-03-08T01:01:02;40.47;;;22.20;;
25351;SDS011;13304;48.464;8.712;2024-03-08T01:03:29;40.70;;;23.73;;
25351;SDS011;13304;48.464;8.712;2024-03-08T01:05:59;39.70;;;21.73;;
25351;SDS011;13304;48.464;8.712;2024-03-08T01:08:28;40.25;;;23.15;;
25351;SDS011;13304;48.464;8.712;2024-03-08T01:10:53;38.72;;;22.02;;
25351;SDS011;13304;48.464;8.712;2024-03-08T01:13:19;40.85;;;21.85;;
25351;SDS011;13304;48.464;8.712;2024-03-08T01:15:46;41.45;;;23.02;;
25351;SDS011;13304;48.464;8.712;2024-03-08T01:18:12;39.53;;;22.92;;
25351;SDS011;13304;48.464;8.712;2024-03-08T01:20:37;40.38;;;22.67;;
25351;SDS011;13304;48.464;8.712;2024-03-08T01:23:03;40.92;;;23.50;;
25351;SDS011;13304;48.464;8.712;2024-03-08T01:25:32;41.58;;;23.30;;
25351;SDS011;13304;48.464;8.712;2024-03-08T01:28:00;41.80;;;25.10;;
25351;SDS011;13304;48.464;8.712;2024-03-08T01:30:27;45.03;;;24.60;;
25351;SDS011;13304;48.464;8.712;2024-03-08T01:32:53;38.72;;;23.08;;
25351;SDS011;13304;48.464;8.712;2024-03-08T01:35:18;41.35;;;23.50;;
25351;SDS011;13304;48.464;8.712;2024-03-08T01:37:46;43.85;;;24.92;;
25351;SDS011;13304;48.464;8.712;2024-03-08T01:40:14;46.60;;;23.88;;
25351;SDS011;13304;48.464;8.712;2024-03-08T01:42:41;41.83;;;24.38;;
25351;SDS011;13304;48.464;8.712;2024-03-08T01:45:07;41.10;;;24.27;;
25351;SDS011;13304;48.464;8.712;2024-03-08T01:47:34;44.63;;;25.67;;
25351;SDS011;13304;48.464;8.712;2024-03-08T01:50:00;40.25;;;24.13;;
25351;SDS011;13304;48.464;8.712;2024-03-08T01:52:31;41.63;;;24.35;;
25351;SDS011;13304;48.464;8.712;2024-03-08T01:55:00;39.97;;;24.10;;
25351;SDS011;13304;48.464;8.712;2024-03-08T01:57:28;42.75;;;24.23;;
25351;SDS011;13304;48.464;8.712;2024-03-08T01:59:56;37.83;;;23.35;;
25351;SDS011;13304;48.464;8.712;2024-03-08T02:02:22;38.05;;;21.98;;
25351;SDS011;13304;48.464;8.712;2024-03-08T02:04:48;44.80;;;24.30;;
25351;SDS011;13304;48.464;8.712;2024-03-08T02:07:17;43.75;;;24.42;;
25351;SDS011;13304;48.464;8.712;2024-03-08T02:09:43;44.75;;;24.70;;
25351;SDS011;13304;48.464;8.712;2024-03-08T02:12:09;41.63;;;24.17;;
25351;SDS011;13304;48.464;8.712;2024-03-08T02:14:35;39.15;;;23.13;;
25351;SDS011;13304;48.464;8.712;2024-03-08T02:17:01;41.30;;;23.60;;
25351;SDS011;13304;48.464;8.712;2024-03-08T02:19:27;40.85;;;23.52;;
25351;SDS011;13304;48.464;8.712;2024-03-08T02:21:53;42.35;;;23.00;;
25351;SDS011;13304;48.464;8.712;2024-03-08T02:24:19;40.75;;;22.48;;
25351;SDS011;13304;48.464;8.712;2024-03-08T02:26:44;37.83;;;22.38;;
25351;SDS011;13304;48.464;8.712;2024-03-08T02:29:11;39.13;;;22.23;;
25351;SDS011;13304;48.464;8.712;2024-03-08T02:31:37;37.83;;;22.20;;
25351;SDS011;13304;48.464;8.712;2024-03-08T02:34:04;40.60;;;22.58;;
25351;SDS011;13304;48.464;8.712;2024-03-08T02:36:30;40.10;;;21.97;;
25351;SDS011;13304;48.464;8.712;2024-03-08T02:39:00;39.15;;;22.52;;
25351;SDS011;13304;48.464;8.712;2024-03-08T02:41:30;38.10;;;21.98;;
25351;SDS011;13304;48.464;8.712;2024-03-08T02:43:56;40.10;;;23.33;;
25351;SDS011;13304;48.464;8.712;2024-03-08T02:46:21;35.35;;;21.23;;
25351;SDS011;13304;48.464;8.712;2024-03-08T02:48:47;37.67;;;21.38;;
25351;SDS011;13304;48.464;8.712;2024-03-08T02:51:13;44.80;;;23.38;;
25351;SDS011;13304;48.464;8.712;2024-03-08T02:53:41;44.40;;;23.05;;
25351;SDS011;13304;48.464;8.712;2024-03-08T02:56:08;42.07;;;21.57;;
25351;SDS011;13304;48.464;8.712;2024-03-08T02:58:37;40.72;;;22.88;;
25351;SDS011;13304;48.464;8.712;2024-03-08T03:01:03;38.35;;;22.38;;
25351;SDS011;13304;48.464;8.712;2024-03-08T03:03:29;40.13;;;22.67;;
25351;SDS011;13304;48.464;8.712;2024-03-08T03:05:54;40.92;;;22.45;;
25351;SDS011;13304;48.464;8.712;2024-03-08T03:08:20;39.13;;;22.77;;
25351;SDS011;13304;48.464;8.712;2024-03-08T03:10:46;38.35;;;21.90;;
25351;SDS011;13304;48.464;8.712;2024-03-08T03:13:12;38.33;;;21.65;;
25351;SDS011;13304;48.464;8.712;2024-03-08T03:15:39;42.58;;;22.40;;
25351;SDS011;13304;48.464;8.712;2024-03-08T03:18:07;37.65;;;22.38;;
25351;SDS011;13304;48.464;8.712;2024-03-08T03:20:33;40.20;;;22.45;;
25351;SDS011;13304;48.464;8.712;2024-03-08T03:23:05;40.38;;;22.52;;
25351;SDS011;13304;48.464;8.712;2024-03-08T03:25:34;37.17;;;21.35;;
25351;SDS011;13304;48.464;8.712;2024-03-08T03:28:03;41.23;;;21.73;;
25351;SDS011;13304;48.464;8.712;2024-03-08T03:33:01;38.60;;;22.05;;
25351;SDS011;13304;48.464;8.712;2024-03-08T03:35:30;40.17;;;22.95;;
25351;SDS011;13304;48.464;8.712;2024-03-08T03:37:55;39.35;;;21.42;;
25351;SDS011;13304;48.464;8.712;2024-03-08T03:40:31;37.17;;;20.57;;
25351;SDS011;13304;48.464;8.712;2024-03-08T03:43:05;39.57;;;22.23;;
25351;SDS011;13304;48.464;8.712;2024-03-08T03:45:31;37.57;;;21.13;;
25351;SDS011;13304;48.464;8.712;2024-03-08T03:48:03;41.53;;;23.13;;
25351;SDS011;13304;48.464;8.712;2024-03-08T03:50:29;43.03;;;23.90;;
25351;SDS011;13304;48.464;8.712;2024-03-08T03:52:55;45.57;;;24.63;;
25351;SDS011;13304;48.464;8.712;2024-03-08T03:55:22;43.93;;;23.83;;
25351;SDS011;13304;48.464;8.712;2024-03-08T03:57:47;45.33;;;24.67;;
25351;SDS011;13304;48.464;8.712;2024-03-08T04:00:13;46.63;;;23.70;;
25351;SDS011;13304;48.464;8.712;2024-03-08T04:02:39;41.87;;;23.77;;
25351;SDS011;13304;48.464;8.712;2024-03-08T04:05:09;44.27;;;24.60;;
25351;SDS011;13304;48.464;8.712;2024-03-08T04:07:35;40.47;;;23.20;;
25351;SDS011;13304;48.464;8.712;2024-03-08T04:10:02;45.23;;;24.40;;
25351;SDS011;13304;48.464;8.712;2024-03-08T04:12:28;43.13;;;23.73;;
25351;SDS011;13304;48.464;8.712;2024-03-08T04:14:54;38.73;;;22.83;;
25351;SDS011;13304;48.464;8.712;2024-03-08T04:17:21;37.03;;;22.50;;
25351;SDS011;13304;48.464;8.712;2024-03-08T04:19:47;44.77;;;24.43;;
25351;SDS011;13304;48.464;8.712;2024-03-08T04:22:13;41.00;;;22.80;;
25351;SDS011;13304;48.464;8.712;2024-03-08T04:24:39;45.20;;;24.77;;
25351;SDS011;13304;48.464;8.712;2024-03-08T04:27:06;39.17;;;22.73;;
25351;SDS011;13304;48.464;8.712;2024-03-08T04:29:31;39.40;;;22.63;;
25351;SDS011;13304;48.464;8.712;2024-03-08T04:31:59;45.10;;;24.17;;
25351;SDS011;13304;48.464;8.712;2024-03-08T04:34:28;46.28;;;21.90;;
25351;SDS011;13304;48.464;8.712;2024-03-08T04:36:54;41.63;;;22.77;;
25351;SDS011;13304;48.464;8.712;2024-03-08T04:39:22;41.67;;;23.83;;
25351;SDS011;13304;48.464;8.712;2024-03-08T04:41:48;36.67;;;22.33;;
25351;SDS011;13304;48.464;8.712;2024-03-08T04:44:15;42.00;;;23.70;;
25351;SDS011;13304;48.464;8.712;2024-03-08T04:46:42;40.03;;;22.53;;
25351;SDS011;13304;48.464;8.712;2024-03-08T04:49:09;42.70;;;23.40;;
25351;SDS011;13304;48.464;8.712;2024-03-08T04:51:36;41.13;;;21.80;;
25351;SDS011;13304;48.464;8.712;2024-03-08T04:54:02;39.80;;;22.60;;
25351;SDS011;13304;48.464;8.712;2024-03-08T04:56:29;40.30;;;22.17;;
25351;SDS011;13304;48.464;8.712;2024-03-08T04:58:55;37.25;;;22.52;;
25351;SDS011;13304;48.464;8.712;2024-03-08T05:01:21;40.90;;;22.67;;
25351;SDS011;13304;48.464;8.712;2024-03-08T05:03:47;38.80;;;22.50;;
25351;SDS011;13304;48.464;8.712;2024-03-08T05:06:15;38.95;;;22.08;;
25351;SDS011;13304;48.464;8.712;2024-03-08T05:08:41;40.20;;;22.50;;
25351;SDS011;13304;48.464;8.712;2024-03-08T05:11:06;39.38;;;22.50;;
25351;SDS011;13304;48.464;8.712;2024-03-08T05:13:32;40.72;;;22.98;;
25351;SDS011;13304;48.464;8.712;2024-03-08T05:15:59;42.42;;;23.95;;
25351;SDS011;13304;48.464;8.712;2024-03-08T05:18:25;40.05;;;22.92;;
25351;SDS011;13304;48.464;8.712;2024-03-08T05:20:53;38.92;;;23.60;;
25351;SDS011;13304;48.464;8.712;2024-03-08T05:23:19;42.70;;;24.48;;
25351;SDS011;13304;48.464;8.712;2024-03-08T05:25:45;44.95;;;24.70;;
25351;SDS011;13304;48.464;8.712;2024-03-08T05:28:12;43.40;;;24.73;;
25351;SDS011;13304;48.464;8.712;2024-03-08T05:30:38;40.65;;;22.90;;
25351;SDS011;13304;48.464;8.712;2024-03-08T05:33:04;43.67;;;23.45;;
25351;SDS011;13304;48.464;8.712;2024-03-08T05:35:30;41.83;;;23.15;;
25351;SDS011;13304;48.464;8.712;2024-03-08T05:37:55;46.45;;;25.42;;
25351;SDS011;13304;48.464;8.712;2024-03-08T05:40:22;40.97;;;23.15;;
25351;SDS011;13304;48.464;8.712;2024-03-08T05:42:49;45.75;;;25.23;;
25351;SDS011;13304;48.464;8.712;2024-03-08T05:45:14;41.42;;;24.05;;
25351;SDS011;13304;48.464;8.712;2024-03-08T05:47:40;42.55;;;23.80;;
25351;SDS011;13304;48.464;8.712;2024-03-08T05:50:06;42.80;;;23.90;;
25351;SDS011;13304;48.464;8.712;2024-03-08T05:52:35;41.75;;;24.48;;
25351;SDS011;13304;48.464;8.712;2024-03-08T05:55:01;46.83;;;28.73;;
25351;SDS011;13304;48.464;8.712;2024-03-08T05:57:27;46.60;;;26.88;;
25351;SDS011;13304;48.464;8.712;2024-03-08T05:59:53;43.33;;;27.35;;
25351;SDS011;13304;48.464;8.712;2024-03-08T06:02:19;46.65;;;26.35;;
25351;SDS011;13304;48.464;8.712;2024-03-08T06:04:46;48.88;;;25.95;;
25351;SDS011;13304;48.464;8.712;2024-03-08T06:07:12;42.47;;;25.35;;
25351;SDS011;13304;48.464;8.712;2024-03-08T06:09:38;43.13;;;24.98;;
25351;SDS011;13304;48.464;8.712;2024-03-08T06:12:03;42.30;;;25.17;;
25351;SDS011;13304;48.464;8.712;2024-03-08T06:14:31;43.25;;;24.92;;
25351;SDS011;13304;48.464;8.712;2024-03-08T06:16:57;37.88;;;23.15;;
25351;SDS011;13304;48.464;8.712;2024-03-08T06:19:23;43.92;;;24.48;;
25351;SDS011;13304;48.464;8.712;2024-03-08T06:21:48;40.17;;;23.33;;
25351;SDS011;13304;48.464;8.712;2024-03-08T06:24:14;45.95;;;25.90;;
25351;SDS011;13304;48.464;8.712;2024-03-08T06:26:40;44.20;;;24.02;;
25351;SDS011;13304;48.464;8.712;2024-03-08T06:29:06;42.47;;;23.85;;
25351;SDS011;13304;48.464;8.712;2024-03-08T06:31:32;45.95;;;25.02;;
25351;SDS011;13304;48.464;8.712;2024-03-08T06:33:57;54.10;;;32.00;;
25351;SDS011;13304;48.464;8.712;2024-03-08T06:36:23;55.30;;;29.58;;
25351;SDS011;13304;48.464;8.712;2024-03-08T06:38:49;48.03;;;27.02;;
25351;SDS011;13304;48.464;8.712;2024-03-08T06:41:15;44.50;;;25.70;;
25351;SDS011;13304;48.464;8.712;2024-03-08T06:43:41;40.85;;;24.92;;
25351;SDS011;13304;48.464;8.712;2024-03-08T06:46:11;41.35;;;23.83;;
25351;SDS011;13304;48.464;8.712;2024-03-08T06:48:38;44.05;;;23.55;;
25351;SDS011;13304;48.464;8.712;2024-03-08T06:51:04;43.03;;;23.98;;
25351;SDS011;13304;48.464;8.712;2024-03-08T06:53:30;43.17;;;25.25;;
25351;SDS011;13304;48.464;8.712;2024-03-08T06:55:56;43.78;;;24.23;;
25351;SDS011;13304;48.464;8.712;2024-03-08T06:58:22;41.00;;;23.63;;
25351;SDS011;13304;48.464;8.712;2024-03-08T07:00:48;44.05;;;23.65;;
25351;SDS011;13304;48.464;8.712;2024-03-08T07:03:17;42.60;;;23.73;;
25351;SDS011;13304;48.464;8.712;2024-03-08T07:05:43;40.40;;;23.35;;
25351;SDS011;13304;48.464;8.712;2024-03-08T07:08:09;39.25;;;22.85;;
25351;SDS011;13304;48.464;8.712;2024-03-08T07:10:35;41.25;;;23.98;;
25351;SDS011;13304;48.464;8.712;2024-03-08T07:13:02;41.75;;;24.05;;
25351;SDS011;13304;48.464;8.712;2024-03-08T07:15:28;43.78;;;25.13;;
25351;SDS011;13304;48.464;8.712;2024-03-08T07:17:54;43.35;;;24.40;;
25351;SDS011;13304;48.464;8.712;2024-03-08T07:20:20;39.15;;;23.33;;
25351;SDS011;13304;48.464;8.712;2024-03-08T07:22:46;44.25;;;23.95;;
25351;SDS011;13304;48.464;8.712;2024-03-08T07:25:12;40.78;;;23.42;;
25351;SDS011;13304;48.464;8.712;2024-03-08T07:27:52;43.95;;;24.77;;
25351;SDS011;13304;48.464;8.712;2024-03-08T07:30:23;42.25;;;24.08;;
25351;SDS011;13304;48.464;8.712;2024-03-08T07:33:08;42.75;;;24.60;;
25351;SDS011;13304;48.464;8.712;2024-03-08T07:35:36;42.27;;;24.43;;
25351;SDS011;13304;48.464;8.712;2024-03-08T07:38:11;42.67;;;24.65;;
25351;SDS011;13304;48.464;8.712;2024-03-08T07:40:40;42.58;;;24.60;;
25351;SDS011;13304;48.464;8.712;2024-03-08T07:43:12;43.03;;;25.02;;
25351;SDS011;13304;48.464;8.712;2024-03-08T07:45:38;42.28;;;25.10;;
25351;SDS011;13304;48.464;8.712;2024-03-08T07:48:04;41.95;;;24.40;;
25351;SDS011;13304;48.464;8.712;2024-03-08T07:50:37;44.75;;;24.67;;
25351;SDS011;13304;48.464;8.712;2024-03-08T07:53:04;51.55;;;25.77;;
25351;SDS011;13304;48.464;8.712;2024-03-08T07:55:32;41.00;;;23.17;;
25351;SDS011;13304;48.464;8.712;2024-03-08T07:57:58;41.10;;;24.05;;
25351;SDS011;13304;48.464;8.712;2024-03-08T08:00:24;44.30;;;24.67;;
25351;SDS011;13304;48.464;8.712;2024-03-08T08:02:52;42.70;;;24.05;;
25351;SDS011;13304;48.464;8.712;2024-03-08T08:05:21;45.65;;;24.58;;
25351;SDS011;13304;48.464;8.712;2024-03-08T08:07:46;42.40;;;24.05;;
25351;SDS011;13304;48.464;8.712;2024-03-08T08:10:12;47.53;;;25.45;;
25351;SDS011;13304;48.464;8.712;2024-03-08T08:12:48;40.95;;;24.00;;
25351;SDS011;13304;48.464;8.712;2024-03-08T08:15:14;42.72;;;24.00;;
25351;SDS011;13304;48.464;8.712;2024-03-08T08:17:40;41.20;;;24.17;;
25351;SDS011;13304;48.464;8.712;2024-03-08T08:20:07;42.25;;;23.85;;
25351;SDS011;13304;48.464;8.712;2024-03-08T08:22:34;40.00;;;23.58;;
25351;SDS011;13304;48.464;8.712;2024-03-08T08:24:59;41.28;;;23.27;;
25351;SDS011;13304;48.464;8.712;2024-03-08T08:27:26;41.47;;;24.20;;
25351;SDS011;13304;48.464;8.712;2024-03-08T08:29:52;41.35;;;24.38;;
25351;SDS011;13304;48.464;8.712;2024-03-08T08:32:18;39.67;;;23.10;;
25351;SDS011;13304;48.464;8.712;2024-03-08T08:34:43;39.58;;;23.17;;
25351;SDS011;13304;48.464;8.712;2024-03-08T08:37:09;39.65;;;23.92;;
25351;SDS011;13304;48.464;8.712;2024-03-08T08:39:35;38.45;;;23.17;;
25351;SDS011;13304;48.464;8.712;2024-03-08T08:42:02;36.60;;;23.48;;
25351;SDS011;13304;48.464;8.712;2024-03-08T08:44:28;41.25;;;22.83;;
25351;SDS011;13304;48.464;8.712;2024-03-08T08:46:56;36.38;;;22.67;;
25351;SDS011;13304;48.464;8.712;2024-03-08T08:49:22;40.88;;;23.63;;
25351;SDS011;13304;48.464;8.712;2024-03-08T08:51:49;36.92;;;22.88;;
25351;SDS011;13304;48.464;8.712;2024-03-08T08:54:15;35.33;;;21.98;;
25351;SDS011;13304;48.464;8.712;2024-03-08T08:56:42;39.67;;;22.70;;
25351;SDS011;13304;48.464;8.712;2024-03-08T08:59:10;37.80;;;23.20;;
25351;SDS011;13304;48.464;8.712;2024-03-08T09:01:39;35.95;;;21.40;;
25351;SDS011;13304;48.464;8.712;2024-03-08T09:04:05;39.30;;;22.15;;
25351;SDS011;13304;48.464;8.712;2024-03-08T09:06:31;37.03;;;21.77;;
25351;SDS011;13304;48.464;8.712;2024-03-08T09:08:57;34.20;;;20.80;;
25351;SDS011;13304;48.464;8.712;2024-03-08T09:11:22;35.92;;;20.25;;
25351;SDS011;13304;48.464;8.712;2024-03-08T09:13:50;34.08;;;21.05;;
25351;SDS011;13304;48.464;8.712;2024-03-08T09:16:16;38.47;;;21.73;;
25351;SDS011;13304;48.464;8.712;2024-03-08T09:18:41;33.55;;;20.23;;
25351;SDS011;13304;48.464;8.712;2024-03-08T09:21:07;36.97;;;20.58;;
25351;SDS011;13304;48.464;8.712;2024-03-08T09:23:35;32.42;;;19.90;;
25351;SDS011;13304;48.464;8.712;2024-03-08T09:26:01;37.55;;;20.38;;
25351;SDS011;13304;48.464;8.712;2024-03-08T09:28:28;34.50;;;20.38;;
25351;SDS011;13304;48.464;8.712;2024-03-08T09:30:54;32.03;;;18.92;;
25351;SDS011;13304;48.464;8.712;2024-03-08T09:33:20;32.22;;;20.00;;
25351;SDS011;13304;48.464;8.712;2024-03-08T09:35:46;34.90;;;20.27;;
25351;SDS011;13304;48.464;8.712;2024-03-08T09:38:13;31.33;;;18.98;;
25351;SDS011;13304;48.464;8.712;2024-03-08T09:40:42;33.80;;;20.05;;
25351;SDS011;13304;48.464;8.712;2024-03-08T09:43:11;31.42;;;19.42;;
25351;SDS011;13304;48.464;8.712;2024-03-08T09:45:38;33.13;;;19.98;;
25351;SDS011;13304;48.464;8.712;2024-03-08T09:48:12;30.13;;;18.55;;
25351;SDS011;13304;48.464;8.712;2024-03-08T09:50:41;32.75;;;19.45;;
25351;SDS011;13304;48.464;8.712;2024-03-08T09:53:08;31.77;;;19.88;;
25351;SDS011;13304;48.464;8.712;2024-03-08T09:55:37;30.35;;;19.17;;
25351;SDS011;13304;48.464;8.712;2024-03-08T09:58:07;33.00;;;18.92;;
25351;SDS011;13304;48.464;8.712;2024-03-08T10:01:07;31.02;;;19.20;;
25351;SDS011;13304;48.464;8.712;2024-03-08T10:03:33;33.20;;;19.08;;
25351;SDS011;13304;48.464;8.712;2024-03-08T10:05:59;35.53;;;19.10;;
25351;SDS011;13304;48.464;8.712;2024-03-08T10:08:28;33.63;;;19.13;;
25351;SDS011;13304;48.464;8.712;2024-03-08T10:10:57;32.80;;;19.63;;
25351;SDS011;13304;48.464;8.712;2024-03-08T10:13:24;30.20;;;18.20;;
25351;SDS011;13304;48.464;8.712;2024-03-08T10:15:51;30.63;;;17.25;;
25351;SDS011;13304;48.464;8.712;2024-03-08T10:18:17;28.65;;;17.00;;
25351;SDS011;13304;48.464;8.712;2024-03-08T10:20:43;26.98;;;17.23;;
25351;SDS011;13304;48.464;8.712;2024-03-08T10:23:09;29.88;;;18.08;;
25351;SDS011;13304;48.464;8.712;2024-03-08T10:25:35;27.80;;;17.15;;
25351;SDS011;13304;48.464;8.712;2024-03-08T10:28:04;30.20;;;18.27;;
25351;SDS011;13304;48.464;8.712;2024-03-08T10:30:30;29.05;;;17.23;;
25351;SDS011;13304;48.464;8.712;2024-03-08T10:32:56;28.25;;;17.40;;
25351;SDS011;13304;48.464;8.712;2024-03-08T10:35:23;29.08;;;17.73;;
25351;SDS011;13304;48.464;8.712;2024-03-08T10:37:52;32.13;;;17.90;;
25351;SDS011;13304;48.464;8.712;2024-03-08T10:40:24;28.02;;;16.80;;
25351;SDS011;13304;48.464;8.712;2024-03-08T10:42:57;27.45;;;16.95;;
25351;SDS011;13304;48.464;8.712;2024-03-08T10:45:40;32.05;;;18.52;;
25351;SDS011;13304;48.464;8.712;2024-03-08T10:50:49;25.48;;;15.70;;
25351;SDS011;13304;48.464;8.712;2024-03-08T10:53:15;26.98;;;16.45;;
25351;SDS011;13304;48.464;8.712;2024-03-08T10:55:43;27.75;;;16.63;;
25351;SDS011;13304;48.464;8.712;2024-03-08T10:58:10;26.50;;;16.55;;
25351;SDS011;13304;48.464;8.712;2024-03-08T11:00:36;24.00;;;15.32;;
25351;SDS011;13304;48.464;8.712;2024-03-08T11:03:02;26.80;;;16.15;;
25351;SDS011;13304;48.464;8.712;2024-03-08T11:05:36;28.17;;;16.73;;
25351;SDS011;13304;48.464;8.712;2024-03-08T11:10:59;26.20;;;16.38;;
25351;SDS011;13304;48.464;8.712;2024-03-08T11:16:06;23.70;;;14.68;;
25351;SDS011;13304;48.464;8.712;2024-03-08T11:18:34;23.95;;;15.02;;
25351;SDS011;13304;48.464;8.712;2024-03-08T11:21:04;20.98;;;13.88;;
25351;SDS011;13304;48.464;8.712;2024-03-08T11:23:37;23.27;;;14.95;;
25351;SDS011;13304;48.464;8.712;2024-03-08T11:26:23;24.02;;;15.35;;
25351;SDS011;13304;48.464;8.712;2024-03-08T11:28:49;23.85;;;14.70;;
25351;SDS011;13304;48.464;8.712;2024-03-08T11:33:46;23.02;;;14.65;;
25351;SDS011;13304;48.464;8.712;2024-03-08T11:36:20;22.83;;;15.05;;
25351;SDS011;13304;48.464;8.712;2024-03-08T11:38:47;23.15;;;14.70;;
25351;SDS011;13304;48.464;8.712;2024-03-08T11:41:16;21.77;;;14.02;;
25351;SDS011;13304;48.464;8.712;2024-03-08T11:43:46;21.73;;;14.55;;
25351;SDS011;13304;48.464;8.712;2024-03-08T11:46:12;24.52;;;15.02;;
25351;SDS011;13304;48.464;8.712;2024-03-08T11:48:39;24.40;;;15.10;;
25351;SDS011;13304;48.464;8.712;2024-03-08T11:51:09;20.63;;;14.10;;
25351;SDS011;13304;48.464;8.712;2024-03-08T11:53:38;24.50;;;14.75;;
25351;SDS011;13304;48.464;8.712;2024-03-08T11:56:09;24.67;;;15.27;;
25351;SDS011;13304;48.464;8.712;2024-03-08T11:58:36;21.38;;;13.77;;
25351;SDS011;13304;48.464;8.712;2024-03-08T12:01:05;27.80;;;14.60;;
25351;SDS011;13304;48.464;8.712;2024-03-08T12:03:32;20.30;;;12.93;;
25351;SDS011;13304;48.464;8.712;2024-03-08T12:05:59;20.45;;;13.98;;
25351;SDS011;13304;48.464;8.712;2024-03-08T12:08:25;22.15;;;13.80;;
25351;SDS011;13304;48.464;8.712;2024-03-08T12:10:54;21.42;;;13.68;;
25351;SDS011;13304;48.464;8.712;2024-03-08T12:13:25;22.27;;;13.43;;
25351;SDS011;13304;48.464;8.712;2024-03-08T12:15:55;25.40;;;13.93;;
25351;SDS011;13304;48.464;8.712;2024-03-08T12:18:22;20.25;;;13.70;;
25351;SDS011;13304;48.464;8.712;2024-03-08T12:20:48;23.02;;;13.88;;
25351;SDS011;13304;48.464;8.712;2024-03-08T12:23:15;20.13;;;13.18;;
25351;SDS011;13304;48.464;8.712;2024-03-08T12:25:41;21.95;;;14.02;;
25351;SDS011;13304;48.464;8.712;2024-03-08T12:28:07;22.98;;;14.77;;
25351;SDS011;13304;48.464;8.712;2024-03-08T12:30:50;22.45;;;14.02;;
25351;SDS011;13304;48.464;8.712;2024-03-08T12:33:22;20.67;;;13.30;;
25351;SDS011;13304;48.464;8.712;2024-03-08T12:35:53;25.75;;;15.60;;
25351;SDS011;13304;48.464;8.712;2024-03-08T12:38:24;22.65;;;14.13;;
25351;SDS011;13304;48.464;8.712;2024-03-08T12:40:59;22.45;;;14.52;;
25351;SDS011;13304;48.464;8.712;2024-03-08T12:43:25;22.70;;;14.57;;
25351;SDS011;13304;48.464;8.712;2024-03-08T12:45:55;23.33;;;15.00;;
25351;SDS011;13304;48.464;8.712;2024-03-08T12:48:20;22.92;;;15.25;;
25351;SDS011;13304;48.464;8.712;2024-03-08T12:50:46;26.15;;;15.73;;
25351;SDS011;13304;48.464;8.712;2024-03-08T12:53:13;22.35;;;15.18;;
25351;SDS011;13304;48.464;8.712;2024-03-08T12:55:39;24.13;;;15.43;;
25351;SDS011;13304;48.464;8.712;2024-03-08T12:58:05;26.52;;;15.95;;
25351;SDS011;13304;48.464;8.712;2024-03-08T13:00:33;27.67;;;17.40;;
25351;SDS011;13304;48.464;8.712;2024-03-08T13:03:01;26.92;;;17.00;;
25351;SDS011;13304;48.464;8.712;2024-03-08T13:05:27;23.90;;;15.70;;
25351;SDS011;13304;48.464;8.712;2024-03-08T13:07:54;27.08;;;16.85;;
25351;SDS011;13304;48.464;8.712;2024-03-08T13:10:20;25.25;;;16.45;;
25351;SDS011;13304;48.464;8.712;2024-03-08T13:12:47;23.23;;;15.70;;
25351;SDS011;13304;48.464;8.712;2024-03-08T13:15:13;24.40;;;15.68;;
25351;SDS011;13304;48.464;8.712;2024-03-08T13:17:48;26.17;;;15.98;;
25351;SDS011;13304;48.464;8.712;2024-03-08T13:20:14;26.55;;;16.65;;
25351;SDS011;13304;48.464;8.712;2024-03-08T13:22:47;23.67;;;16.55;;
25351;SDS011;13304;48.464;8.712;2024-03-08T13:25:13;28.48;;;17.67;;
25351;SDS011;13304;48.464;8.712;2024-03-08T13:27:42;27.60;;;16.73;;
25351;SDS011;13304;48.464;8.712;2024-03-08T13:30:08;29.38;;;17.23;;
25351;SDS011;13304;48.464;8.712;2024-03-08T13:32:43;27.58;;;17.73;;
25351;SDS011;13304;48.464;8.712;2024-03-08T13:35:09;32.28;;;18.77;;
25351;SDS011;13304;48.464;8.712;2024-03-08T13:40:08;23.80;;;15.93;;
25351;SDS011;13304;48.464;8.712;2024-03-08T13:42:39;28.55;;;17.42;;
25351;SDS011;13304;48.464;8.712;2024-03-08T13:45:06;27.58;;;17.52;;
25351;SDS011;13304;48.464;8.712;2024-03-08T13:47:41;30.60;;;17.52;;
25351;SDS011;13304;48.464;8.712;2024-03-08T13:50:07;30.15;;;18.40;;
25351;SDS011;13304;48.464;8.712;2024-03-08T13:52:37;27.00;;;16.90;;
25351;SDS011;13304;48.464;8.712;2024-03-08T13:55:03;26.75;;;16.83;;
25351;SDS011;13304;48.464;8.712;2024-03-08T13:57:30;27.70;;;17.85;;
25351;SDS011;13304;48.464;8.712;2024-03-08T13:59:57;27.58;;;16.95;;
25351;SDS011;13304;48.464;8.712;2024-03-08T14:02:23;26.02;;;16.33;;
25351;SDS011;13304;48.464;8.712;2024-03-08T14:04:53;25.20;;;16.75;;
25351;SDS011;13304;48.464;8.712;2024-03-08T14:07:20;26.98;;;16.85;;
25351;SDS011;13304;48.464;8.712;2024-03-08T14:09:45;28.70;;;17.90;;
25351;SDS011;13304;48.464;8.712;2024-03-08T14:12:11;25.75;;;16.35;;
25351;SDS011;13304;48.464;8.712;2024-03-08T14:14:38;29.00;;;16.90;;
25351;SDS011;13304;48.464;8.712;2024-03-08T14:17:05;28.85;;;18.20;;
25351;SDS011;13304;48.464;8.712;2024-03-08T14:19:32;28.83;;;17.38;;
25351;SDS011;13304;48.464;8.712;2024-03-08T14:21:59;28.75;;;17.23;;
25351;SDS011;13304;48.464;8.712;2024-03-08T14:24:24;27.20;;;17.73;;
25351;SDS011;13304;48.464;8.712;2024-03-08T14:26:50;27.10;;;17.13;;
25351;SDS011;13304;48.464;8.712;2024-03-08T14:29:16;26.48;;;17.00;;
25351;SDS011;13304;48.464;8.712;2024-03-08T14:31:43;27.52;;;16.58;;
25351;SDS011;13304;48.464;8.712;2024-03-08T14:34:10;27.38;;;16.27;;
25351;SDS011;13304;48.464;8.712;2024-03-08T14:36:36;29.73;;;16.52;;